createdAt,value
2023-03-13T00:01:49.685Z,10.70
2023-03-13T00:04:17.852Z,10.85
2023-03-13T00:06:45.750Z,9.85
2023-03-13T00:09:16.521Z,7.07
2023-03-13T00:11:46.128Z,10.07
2023-03-13T00:14:13.863Z,9.55
2023-03-13T00:16:41.899Z,8.95
2023-03-13T00:19:10.388Z,9.50
2023-03-13T00:21:38.501Z,10.27
2023-03-13T00:24:06.743Z,9.30
2023-03-13T00:26:34.533Z,10.05
2023-03-13T00:29:02.261Z,10.05
2023-03-13T00:31:31.629Z,12.30
2023-03-13T00:34:03.899Z,12.23
2023-03-13T00:36:34.137Z,11.18
2023-03-13T00:39:05.193Z,7.85
2023-03-13T00:41:37.000Z,7.43
2023-03-13T00:44:06.050Z,7.93
2023-03-13T00:46:33.889Z,8.93
2023-03-13T00:49:01.805Z,9.13
2023-03-13T00:51:30.292Z,8.70
2023-03-13T00:54:04.053Z,8.80
2023-03-13T00:56:31.883Z,8.55
2023-03-13T00:59:00.646Z,10.43
2023-03-13T01:01:34.540Z,11.05
2023-03-13T01:04:05.800Z,12.25
2023-03-13T01:06:36.171Z,8.93
2023-03-13T01:09:05.934Z,10.82
2023-03-13T01:11:39.211Z,11.20
2023-03-13T01:14:10.901Z,9.32
2023-03-13T01:16:39.144Z,10.90
2023-03-13T01:19:13.621Z,12.35
2023-03-13T01:21:43.342Z,8.68
2023-03-13T01:24:12.223Z,9.48
2023-03-13T01:26:40.163Z,7.82
2023-03-13T01:29:08.094Z,8.57
2023-03-13T01:31:36.471Z,8.20
2023-03-13T01:34:08.368Z,10.80
2023-03-13T01:36:38.040Z,8.40
2023-03-13T01:39:06.397Z,7.55
2023-03-13T01:41:34.454Z,7.55
2023-03-13T01:44:02.261Z,7.78
2023-03-13T01:46:36.133Z,10.23
2023-03-13T01:49:16.960Z,7.03
2023-03-13T01:52:20.631Z,7.60
2023-03-13T01:54:57.986Z,8.93
2023-03-13T01:57:25.742Z,7.53
2023-03-13T01:59:59.472Z,8.52
2023-03-13T02:02:28.388Z,10.60
2023-03-13T02:05:00.818Z,9.93
2023-03-13T02:07:33.782Z,14.55
2023-03-13T02:10:01.905Z,9.70
2023-03-13T02:12:35.227Z,10.13
2023-03-13T02:15:13.801Z,8.15
2023-03-13T02:17:43.336Z,10.55
2023-03-13T02:20:12.606Z,11.23
2023-03-13T02:23:02.168Z,8.98
2023-03-13T02:25:37.626Z,8.48
2023-03-13T02:28:09.222Z,6.65
2023-03-13T02:30:40.151Z,7.13
2023-03-13T02:33:08.049Z,7.53
2023-03-13T02:35:37.347Z,9.15
2023-03-13T02:38:13.810Z,6.57
2023-03-13T02:40:45.513Z,8.68
2023-03-13T02:43:34.535Z,8.18
2023-03-13T02:46:21.955Z,7.30
2023-03-13T02:48:55.994Z,9.13
2023-03-13T02:51:25.173Z,9.00
2023-03-13T02:53:58.977Z,6.72
2023-03-13T02:56:28.307Z,12.07
2023-03-13T02:58:56.825Z,7.22
2023-03-13T03:01:26.733Z,5.97
2023-03-13T03:03:54.747Z,7.07
2023-03-13T03:06:22.473Z,6.50
2023-03-13T03:08:51.027Z,6.93
2023-03-13T03:11:19.269Z,7.22
2023-03-13T03:13:51.801Z,7.32
2023-03-13T03:16:21.635Z,10.30
2023-03-13T03:18:49.368Z,5.95
2023-03-13T03:21:17.175Z,9.70
2023-03-13T03:23:45.042Z,6.68
2023-03-13T03:26:13.903Z,6.47
2023-03-13T03:28:41.932Z,6.95
2023-03-13T03:31:15.261Z,5.88
2023-03-13T03:33:44.371Z,7.35
2023-03-13T03:36:17.247Z,6.40
2023-03-13T03:38:46.572Z,7.82
2023-03-13T03:41:17.809Z,5.32
2023-03-13T03:43:47.484Z,6.90
2023-03-13T03:46:17.829Z,6.50
2023-03-13T03:48:45.758Z,6.55
2023-03-13T03:51:14.883Z,8.85
2023-03-13T03:53:47.627Z,7.75
2023-03-13T03:56:15.889Z,6.57
2023-03-13T03:58:48.688Z,8.85
2023-03-13T04:01:21.739Z,7.70
2023-03-13T04:03:50.912Z,10.88
2023-03-13T04:06:19.862Z,6.72
2023-03-13T04:08:48.416Z,6.47
2023-03-13T04:11:19.300Z,10.10
2023-03-13T04:13:53.645Z,7.32
2023-03-13T04:16:21.625Z,8.20
2023-03-13T04:18:49.781Z,8.38
2023-03-13T04:21:19.018Z,8.65
2023-03-13T04:23:58.515Z,6.32
2023-03-13T04:26:26.337Z,7.55
2023-03-13T04:28:55.884Z,8.35
2023-03-13T04:31:43.911Z,8.48
2023-03-13T04:34:24.195Z,8.88
2023-03-13T04:37:21.351Z,7.20
2023-03-13T04:40:24.548Z,7.68
2023-03-13T04:43:17.032Z,5.90
2023-03-13T04:46:01.277Z,10.50
2023-03-13T04:48:49.336Z,6.63
2023-03-13T04:51:37.302Z,8.35
2023-03-13T04:54:23.824Z,10.88
2023-03-13T04:57:09.840Z,8.13
2023-03-13T04:59:42.660Z,7.57
2023-03-13T05:02:30.724Z,8.57
2023-03-13T05:05:09.440Z,6.30
2023-03-13T05:07:56.014Z,9.52
2023-03-13T05:10:47.428Z,10.60
2023-03-13T05:13:15.074Z,10.65
2023-03-13T05:15:51.879Z,8.55
2023-03-13T05:18:39.545Z,12.30
2023-03-13T05:21:27.505Z,11.45
2023-03-13T05:24:16.425Z,12.48
2023-03-13T05:27:22.828Z,9.80
2023-03-13T05:30:05.350Z,10.23
2023-03-13T05:32:55.988Z,15.35
2023-03-13T05:35:53.170Z,18.98
2023-03-13T05:38:24.160Z,12.95
2023-03-13T05:41:17.837Z,9.38
2023-03-13T05:44:04.332Z,10.73
2023-03-13T05:46:54.849Z,9.30
2023-03-13T05:49:37.744Z,9.65
2023-03-13T05:52:30.003Z,9.50
2023-03-13T05:55:00.754Z,11.18
2023-03-13T05:58:00.742Z,12.38
2023-03-13T06:00:48.883Z,13.32
2023-03-13T06:03:35.389Z,11.88
2023-03-13T06:06:03.847Z,9.40
2023-03-13T06:08:38.024Z,11.98
2023-03-13T06:11:05.729Z,11.50
2023-03-13T06:13:34.788Z,13.35
2023-03-13T06:16:21.236Z,12.27
2023-03-13T06:18:49.727Z,11.70
2023-03-13T06:21:17.469Z,12.68
2023-03-13T06:23:45.228Z,13.32
2023-03-13T06:26:13.042Z,30.02
2023-03-13T06:28:40.977Z,26.60
2023-03-13T06:31:09.005Z,17.95
2023-03-13T06:33:37.411Z,19.70
2023-03-13T06:36:05.720Z,21.08
2023-03-13T06:38:34.160Z,17.83
2023-03-13T06:41:02.254Z,13.82
2023-03-13T06:43:30.578Z,16.58
2023-03-13T06:46:04.084Z,19.58
2023-03-13T06:48:31.850Z,20.05
2023-03-13T06:50:59.739Z,13.23
2023-03-13T06:53:28.407Z,17.58
2023-03-13T06:55:56.511Z,14.50
2023-03-13T06:58:32.016Z,11.07
2023-03-13T07:01:07.012Z,10.68
2023-03-13T07:03:35.813Z,11.95
2023-03-13T07:06:05.693Z,10.35
2023-03-13T07:08:34.465Z,6.28
2023-03-13T07:11:09.811Z,8.80
2023-03-13T07:13:38.655Z,9.85
2023-03-13T07:16:09.342Z,7.45
2023-03-13T07:18:38.411Z,7.90
2023-03-13T07:21:08.207Z,8.05
2023-03-13T07:23:37.347Z,6.93
2023-03-13T07:26:08.928Z,11.60
2023-03-13T07:28:37.889Z,6.47
2023-03-13T07:31:10.399Z,8.27
2023-03-13T07:33:38.328Z,7.95
2023-03-13T07:36:06.387Z,6.95
2023-03-13T07:38:34.498Z,8.68
2023-03-13T07:41:05.781Z,10.43
2023-03-13T07:43:33.945Z,7.88
2023-03-13T07:46:06.014Z,7.22
2023-03-13T07:48:36.289Z,9.00
2023-03-13T07:51:05.796Z,11.70
2023-03-13T07:53:34.758Z,12.63
2023-03-13T07:56:07.740Z,10.85
2023-03-13T07:58:38.789Z,15.30
2023-03-13T08:01:16.827Z,14.00
2023-03-13T08:03:45.923Z,13.85
2023-03-13T08:06:17.323Z,13.07
2023-03-13T08:08:46.328Z,12.63
2023-03-13T08:11:20.150Z,13.43
2023-03-13T08:13:49.901Z,11.60
2023-03-13T08:16:20.760Z,13.43
2023-03-13T08:18:52.870Z,14.98
2023-03-13T08:21:29.312Z,10.60
2023-03-13T08:23:59.863Z,11.55
2023-03-13T08:26:29.502Z,11.00
2023-03-13T08:29:00.221Z,14.88
2023-03-13T08:31:49.236Z,13.25
2023-03-13T08:34:18.492Z,11.57
2023-03-13T08:36:48.298Z,11.27
2023-03-13T08:39:18.465Z,11.70
2023-03-13T08:41:46.929Z,12.90
2023-03-13T08:44:17.495Z,14.90
2023-03-13T08:46:45.872Z,10.90
2023-03-13T08:49:14.211Z,11.50
2023-03-13T08:51:42.648Z,11.98
2023-03-13T08:54:10.629Z,9.48
2023-03-13T08:56:38.756Z,7.25
2023-03-13T08:59:07.135Z,8.15
2023-03-13T09:01:36.334Z,11.18
2023-03-13T09:04:05.551Z,8.32
2023-03-13T09:06:37.014Z,9.55
2023-03-13T09:09:06.077Z,8.85
2023-03-13T09:11:34.804Z,9.13
2023-03-13T09:14:02.646Z,7.43
2023-03-13T09:16:33.327Z,10.25
2023-03-13T09:19:01.786Z,10.48
2023-03-13T09:21:34.410Z,8.52
2023-03-13T09:24:02.588Z,12.68
2023-03-13T09:26:31.094Z,11.02
2023-03-13T09:28:59.420Z,10.23
2023-03-13T09:31:32.902Z,12.00
2023-03-13T09:34:01.386Z,12.25
2023-03-13T09:36:29.757Z,9.25
2023-03-13T09:39:00.178Z,15.45
2023-03-13T09:41:35.317Z,11.50
2023-03-13T09:44:20.796Z,12.70
2023-03-13T09:46:54.545Z,12.18
2023-03-13T09:49:35.146Z,8.40
2023-03-13T09:52:17.663Z,10.95
2023-03-13T09:55:22.901Z,9.90
2023-03-13T09:58:13.918Z,6.72
2023-03-13T10:00:46.696Z,11.70
2023-03-13T10:03:23.843Z,10.15
2023-03-13T10:08:30.738Z,15.23
2023-03-13T10:11:11.900Z,12.98
2023-03-13T10:13:47.045Z,10.30
2023-03-13T10:16:39.169Z,10.90
2023-03-13T10:19:15.909Z,10.52
2023-03-13T10:21:50.058Z,8.32
2023-03-13T10:24:21.036Z,8.63
2023-03-13T10:26:48.800Z,9.25
2023-03-13T10:29:23.517Z,9.27
2023-03-13T10:32:06.194Z,9.95
2023-03-13T10:35:20.519Z,10.98
2023-03-13T10:37:48.438Z,12.02
2023-03-13T10:40:27.983Z,11.98
2023-03-13T10:43:08.274Z,8.90
2023-03-13T10:45:37.872Z,9.52
2023-03-13T10:48:15.384Z,12.95
2023-03-13T10:50:45.729Z,11.07
2023-03-13T10:53:28.911Z,10.55
2023-03-13T10:56:08.941Z,13.05
2023-03-13T10:58:47.872Z,10.30
2023-03-13T11:01:18.089Z,9.52
2023-03-13T11:03:47.969Z,19.63
2023-03-13T11:06:26.881Z,23.67
2023-03-13T11:09:17.867Z,15.60
2023-03-13T11:11:53.237Z,14.70
2023-03-13T11:14:23.788Z,13.07
2023-03-13T11:17:15.984Z,10.60
2023-03-13T11:19:44.343Z,8.70
2023-03-13T11:22:15.541Z,8.65
2023-03-13T11:25:11.406Z,15.40
2023-03-13T11:27:49.511Z,26.73
2023-03-13T11:30:28.396Z,25.23
2023-03-13T11:33:05.475Z,23.15
2023-03-13T11:35:47.317Z,21.55
2023-03-13T11:39:13.887Z,23.55
2023-03-13T11:42:02.611Z,18.88
2023-03-13T11:45:01.473Z,14.90
2023-03-13T11:47:36.787Z,12.40
2023-03-13T11:50:13.528Z,15.07
2023-03-13T11:53:02.795Z,11.93
2023-03-13T11:55:36.886Z,16.75
2023-03-13T11:58:19.722Z,13.63
2023-03-13T12:01:05.630Z,11.57
2023-03-13T12:03:55.217Z,11.63
2023-03-13T12:06:44.708Z,13.88
2023-03-13T12:09:28.352Z,13.98
2023-03-13T12:12:05.935Z,11.15
2023-03-13T12:14:45.359Z,15.18
2023-03-13T12:17:30.245Z,12.30
2023-03-13T12:20:17.873Z,9.95
2023-03-13T12:25:32.948Z,12.18
2023-03-13T12:28:28.531Z,8.52
2023-03-13T12:31:19.646Z,14.02
2023-03-13T12:34:07.740Z,11.15
2023-03-13T12:37:08.716Z,12.57
2023-03-13T12:40:09.443Z,13.98
2023-03-13T12:42:48.706Z,17.23
2023-03-13T12:45:20.086Z,34.40
2023-03-13T12:48:15.337Z,99.55
2023-03-13T12:51:17.295Z,106.05
2023-03-13T12:54:03.683Z,66.72
2023-03-13T12:56:45.841Z,52.83
2023-03-13T12:59:19.008Z,49.50
2023-03-13T13:01:51.328Z,40.92
2023-03-13T13:04:32.502Z,27.58
2023-03-13T13:07:08.279Z,22.42
2023-03-13T13:09:42.134Z,24.85
2023-03-13T13:12:11.052Z,25.60
2023-03-13T13:14:48.084Z,16.27
2023-03-13T13:20:30.667Z,17.85
2023-03-13T13:23:24.035Z,15.80
2023-03-13T13:25:53.849Z,17.60
2023-03-13T13:28:33.758Z,20.83
2023-03-13T13:31:02.407Z,21.30
2023-03-13T13:33:31.134Z,14.93
2023-03-13T13:36:15.850Z,17.27
2023-03-13T13:38:44.578Z,13.10
2023-03-13T13:41:12.968Z,12.75
2023-03-13T13:43:45.832Z,12.07
2023-03-13T13:46:20.893Z,12.15
2023-03-13T13:49:06.931Z,13.23
2023-03-13T13:51:35.287Z,16.52
2023-03-13T13:54:23.361Z,21.63
2023-03-13T13:57:10.171Z,19.00
2023-03-13T13:59:49.611Z,15.30
2023-03-13T14:02:30.760Z,12.57
2023-03-13T14:05:37.120Z,16.77
2023-03-13T14:08:14.128Z,15.73
2023-03-13T14:13:19.668Z,13.60
2023-03-13T14:15:49.955Z,14.98
2023-03-13T14:18:28.446Z,14.27
2023-03-13T14:20:56.302Z,15.38
2023-03-13T14:23:33.024Z,15.57
2023-03-13T14:26:30.428Z,13.95
2023-03-13T14:29:03.376Z,13.03
2023-03-13T14:31:36.214Z,12.43
2023-03-13T14:34:10.011Z,10.93
2023-03-13T14:37:14.955Z,9.27
2023-03-13T14:39:46.888Z,15.57
2023-03-13T14:42:18.590Z,12.25
2023-03-13T14:44:50.359Z,10.30
2023-03-13T14:47:32.811Z,11.10
2023-03-13T14:50:04.731Z,10.82
2023-03-13T14:52:34.251Z,9.15
2023-03-13T14:55:06.536Z,12.57
2023-03-13T14:57:35.767Z,8.23
2023-03-13T15:00:30.850Z,11.60
2023-03-13T15:03:17.547Z,10.63
2023-03-13T15:05:52.559Z,16.17
2023-03-13T15:08:24.969Z,11.68
2023-03-13T15:10:53.212Z,12.10
2023-03-13T15:13:27.428Z,16.00
2023-03-13T15:15:56.054Z,11.05
2023-03-13T15:18:26.472Z,15.93
2023-03-13T15:21:19.444Z,14.05
2023-03-13T15:23:54.684Z,10.00
2023-03-13T15:26:24.334Z,10.52
2023-03-13T15:28:52.434Z,11.75
2023-03-13T15:31:24.065Z,10.32
2023-03-13T15:33:57.126Z,11.27
2023-03-13T15:36:26.190Z,11.52
2023-03-13T15:38:54.454Z,15.27
2023-03-13T15:41:23.237Z,14.07
2023-03-13T15:43:52.916Z,9.70
2023-03-13T15:46:21.235Z,10.70
2023-03-13T15:48:49.784Z,10.27
2023-03-13T15:51:17.882Z,11.88
2023-03-13T15:53:46.477Z,12.95
2023-03-13T15:56:20.006Z,13.77
2023-03-13T15:58:48.738Z,10.95
2023-03-13T16:01:18.159Z,8.88
2023-03-13T16:03:46.548Z,8.38
2023-03-13T16:06:21.082Z,13.85
2023-03-13T16:08:51.652Z,14.70
2023-03-13T16:11:19.671Z,10.77
2023-03-13T16:13:47.367Z,10.50
2023-03-13T16:16:21.401Z,13.82
2023-03-13T16:18:51.366Z,13.05
2023-03-13T16:21:26.125Z,14.40
2023-03-13T16:23:54.676Z,10.20
2023-03-13T16:26:25.323Z,10.30
2023-03-13T16:28:55.341Z,18.98
2023-03-13T16:31:27.650Z,21.30
2023-03-13T16:33:58.282Z,23.73
2023-03-13T16:36:29.710Z,21.98
2023-03-13T16:38:59.086Z,16.70
2023-03-13T16:41:28.739Z,14.05
2023-03-13T16:43:58.162Z,11.48
2023-03-13T16:46:41.282Z,16.02
2023-03-13T16:49:17.976Z,10.88
2023-03-13T16:51:47.035Z,9.65
2023-03-13T16:54:14.818Z,14.75
2023-03-13T16:56:43.772Z,13.60
2023-03-13T16:59:18.428Z,12.18
2023-03-13T17:01:47.314Z,9.40
2023-03-13T17:04:15.238Z,11.80
2023-03-13T17:06:44.984Z,12.20
2023-03-13T17:09:17.335Z,9.45
2023-03-13T17:11:45.752Z,8.48
2023-03-13T17:14:13.735Z,9.43
2023-03-13T17:16:44.082Z,8.60
2023-03-13T17:19:15.456Z,8.30
2023-03-13T17:21:43.343Z,7.55
2023-03-13T17:24:11.170Z,7.30
2023-03-13T17:26:40.322Z,8.43
2023-03-13T17:29:11.816Z,11.02
2023-03-13T17:31:41.276Z,10.23
2023-03-13T17:34:09.892Z,11.20
2023-03-13T17:36:37.679Z,8.75
2023-03-13T17:39:08.984Z,10.95
2023-03-13T17:41:37.217Z,8.35
2023-03-13T17:44:05.597Z,10.43
2023-03-13T17:46:43.305Z,11.23
2023-03-13T17:49:13.334Z,9.35
2023-03-13T17:51:41.872Z,9.88
2023-03-13T17:54:09.707Z,12.77
2023-03-13T17:56:40.408Z,9.02
2023-03-13T17:59:13.808Z,8.13
2023-03-13T18:01:42.416Z,14.95
2023-03-13T18:04:11.054Z,12.07
2023-03-13T18:06:40.321Z,15.77
2023-03-13T18:09:15.555Z,10.00
2023-03-13T18:11:43.437Z,10.02
2023-03-13T18:14:11.740Z,8.13
2023-03-13T18:16:47.598Z,11.60
2023-03-13T18:19:26.800Z,9.30
2023-03-13T18:21:56.083Z,7.35
2023-03-13T18:24:23.902Z,9.43
2023-03-13T18:26:51.871Z,11.38
2023-03-13T18:29:26.895Z,9.75
2023-03-13T18:32:00.696Z,10.40
2023-03-13T18:34:29.432Z,11.15
2023-03-13T18:37:03.886Z,15.65
2023-03-13T18:39:33.295Z,12.38
2023-03-13T18:42:02.183Z,11.13
2023-03-13T18:44:30.041Z,11.18
2023-03-13T18:46:57.879Z,9.73
2023-03-13T18:49:26.972Z,11.50
2023-03-13T18:51:54.706Z,10.43
2023-03-13T18:54:22.918Z,11.63
2023-03-13T18:56:51.110Z,8.75
2023-03-13T18:59:21.419Z,13.55
2023-03-13T19:01:50.102Z,20.77
2023-03-13T19:04:19.324Z,17.17
2023-03-13T19:06:48.221Z,14.45
2023-03-13T19:09:42.115Z,18.17
2023-03-13T19:12:11.961Z,20.63
2023-03-13T19:14:40.005Z,16.88
2023-03-13T19:17:17.850Z,17.70
2023-03-13T19:19:47.292Z,16.42
2023-03-13T19:22:15.183Z,16.00
2023-03-13T19:24:43.100Z,16.92
2023-03-13T19:27:14.875Z,17.27
2023-03-13T19:29:44.968Z,15.05
2023-03-13T19:32:18.619Z,13.38
2023-03-13T19:34:48.268Z,17.15
2023-03-13T19:37:17.372Z,12.85
2023-03-13T19:39:46.638Z,17.85
2023-03-13T19:42:15.255Z,16.17
2023-03-13T19:44:43.466Z,15.20
2023-03-13T19:47:19.225Z,14.93
2023-03-13T19:49:51.154Z,13.30
2023-03-13T19:52:19.534Z,13.25
2023-03-13T19:54:47.566Z,15.15
2023-03-13T19:57:17.987Z,19.30
2023-03-13T19:59:45.975Z,16.60
2023-03-13T20:02:14.452Z,16.10
2023-03-13T20:04:45.963Z,16.67
2023-03-13T20:07:17.421Z,21.17
2023-03-13T20:09:45.340Z,18.60
2023-03-13T20:12:13.468Z,16.75
2023-03-13T20:14:43.314Z,33.80
2023-03-13T20:17:11.376Z,22.98
2023-03-13T20:19:39.344Z,25.75
2023-03-13T20:22:17.390Z,23.70
2023-03-13T20:24:45.581Z,17.55
2023-03-13T20:27:13.745Z,15.30
2023-03-13T20:29:41.752Z,14.48
2023-03-13T20:32:09.891Z,16.00
2023-03-13T20:34:38.003Z,12.73
2023-03-13T20:37:07.871Z,15.70
2023-03-13T20:39:36.874Z,16.45
2023-03-13T20:42:06.932Z,12.20
2023-03-13T20:44:36.020Z,11.20
2023-03-13T20:47:03.925Z,16.20
2023-03-13T20:49:32.046Z,14.95
2023-03-13T20:51:59.874Z,11.25
2023-03-13T20:54:27.998Z,11.30
2023-03-13T20:56:58.319Z,17.60
2023-03-13T20:59:28.801Z,15.13
2023-03-13T21:01:56.808Z,16.65
2023-03-13T21:04:25.921Z,17.65
2023-03-13T21:06:54.435Z,19.33
2023-03-13T21:09:24.744Z,16.95
2023-03-13T21:11:52.988Z,15.85
2023-03-13T21:14:21.078Z,17.73
2023-03-13T21:16:49.175Z,22.42
2023-03-13T21:19:20.192Z,16.60
2023-03-13T21:21:49.898Z,16.60
2023-03-13T21:24:19.204Z,13.75
2023-03-13T21:26:47.286Z,17.88
2023-03-13T21:29:15.199Z,13.50
2023-03-13T21:31:43.499Z,11.68
2023-03-13T21:34:11.452Z,12.95
2023-03-13T21:36:42.384Z,14.93
2023-03-13T21:39:14.406Z,10.82
2023-03-13T21:41:42.539Z,12.43
2023-03-13T21:44:11.229Z,11.77
2023-03-13T21:46:39.170Z,8.73
2023-03-13T21:49:07.163Z,7.40
2023-03-13T21:51:35.129Z,9.43
2023-03-13T21:54:03.022Z,10.18
2023-03-13T21:56:32.508Z,9.57
2023-03-13T21:59:00.484Z,8.57
2023-03-13T22:01:28.394Z,7.53
2023-03-13T22:03:56.528Z,6.03
2023-03-13T22:06:27.252Z,5.30
2023-03-13T22:08:55.565Z,9.02
2023-03-13T22:11:23.431Z,6.43
2023-03-13T22:13:52.700Z,8.57
2023-03-13T22:16:21.638Z,9.98
2023-03-13T22:18:49.607Z,8.98
2023-03-13T22:21:19.043Z,10.55
2023-03-13T22:23:47.424Z,9.77
2023-03-13T22:26:15.294Z,7.82
2023-03-13T22:28:43.157Z,8.20
2023-03-13T22:31:12.086Z,9.95
2023-03-13T22:33:40.018Z,13.50
2023-03-13T22:36:08.993Z,10.93
2023-03-13T22:38:39.195Z,7.28
2023-03-13T22:41:09.809Z,9.00
2023-03-13T22:43:37.612Z,10.10
2023-03-13T22:46:08.600Z,10.48
2023-03-13T22:48:39.354Z,9.38
2023-03-13T22:51:09.127Z,6.53
2023-03-13T22:53:38.969Z,11.35
2023-03-13T22:56:10.169Z,6.53
2023-03-13T22:58:39.593Z,9.88
2023-03-13T23:01:13.096Z,10.68
2023-03-13T23:03:41.335Z,7.32
2023-03-13T23:06:14.942Z,10.70
2023-03-13T23:08:43.959Z,6.20
2023-03-13T23:11:12.462Z,6.03
2023-03-13T23:13:42.982Z,8.02
2023-03-13T23:16:12.843Z,7.05
2023-03-13T23:18:42.511Z,6.63
2023-03-13T23:21:14.027Z,7.22
2023-03-13T23:23:42.823Z,5.43
2023-03-13T23:26:14.611Z,5.28
2023-03-13T23:28:42.957Z,5.10
2023-03-13T23:31:14.040Z,3.60
2023-03-13T23:33:42.287Z,4.90
2023-03-13T23:36:16.720Z,4.80
2023-03-13T23:38:44.963Z,3.55
2023-03-13T23:41:14.232Z,3.90
2023-03-13T23:43:42.123Z,3.45
2023-03-13T23:46:26.057Z,3.13
2023-03-13T23:48:58.712Z,3.08
2023-03-13T23:51:26.864Z,2.88
2023-03-13T23:53:54.666Z,3.78
2023-03-13T23:56:22.528Z,5.60
2023-03-13T23:58:53.217Z,3.70
